PWSweather.com
Personal Weather Stations
Station Observations
KCOBLACK1
Chalet Park, Black Hawk, CO 80422

Chalet ParkBlack Hawk, CO 80422

Lat: 39.8294, Lon: -105.48

Elevation: 9370

Station Type: Vantage Pro2

http://www.oscaranddeb.com/weather

High Low Average
Temperature 32.7°F0.4°C 10.5°F-11.9°C 17.4°F-8.1°C
Dew Point 23.0°F-5.0°C -8.0°F-22.2°C 11.7°F-11.3°C
Winds 27.0 mph 43.5 kmh Calm Calm 10.0 mph WNW16.1 kmh WNW
Wind Gusts 43.0 mph69.2 kmh 6.0 mph9.7 kmh 21.0 mph33.8 kmh
Humidity 90% 37% 69%
Pressure 29.84 in1010.5 mb 29.22 in989.5 mb -
Precipitation 0.00 in0.0 mm - -
Hour Temp Dew Point Humidity Winds Wind Gusts Pressure Precip Precip Rate Daily Precip Total
12:00 AM 31.6°F-0.2°C 20.4°F-6.4°C 63% 13.0 mph WSW20.9 kmh WSW 46.0 mph74.0 kmh 29.29 in991.9 mb 0.00 in0.0 mm 0.00 in/hr0.0 mm/hr 0.00 in0.0 mm
12:05 AM 31.6°F-0.2°C 20.4°F-6.4°C 63% 18.0 mph SW29.0 kmh SW 37.0 mph59.5 kmh 29.29 in991.9 mb 0.00 in0.0 mm 0.00 in/hr0.0 mm/hr 0.00 in0.0 mm
12:10 AM 31.6°F-0.2°C 20.0°F-6.7°C 62% 22.0 mph SW35.4 kmh SW 34.0 mph54.7 kmh 29.29 in991.9 mb 0.00 in0.0 mm 0.00 in/hr0.0 mm/hr 0.00 in0.0 mm
12:15 AM 31.8°F-0.1°C 19.9°F-6.7°C 61% 20.0 mph SW32.2 kmh SW 35.0 mph56.3 kmh 29.27 in991.2 mb 0.00 in0.0 mm 0.00 in/hr0.0 mm/hr 0.00 in0.0 mm
12:20 AM 31.9°F-0.1°C 20.0°F-6.7°C 61% 29.0 mph SW46.7 kmh SW 36.0 mph57.9 kmh 29.27 in991.2 mb 0.00 in0.0 mm 0.00 in/hr0.0 mm/hr 0.00 in0.0 mm
12:25 AM 31.8°F-0.1°C 20.2°F-6.6°C 62% 20.0 mph WSW32.2 kmh WSW 42.0 mph67.6 kmh 29.27 in991.2 mb 0.00 in0.0 mm 0.00 in/hr0.0 mm/hr 0.00 in0.0 mm
12:30 AM 31.3°F-0.4°C 20.5°F-6.4°C 64% 20.0 mph SW32.2 kmh SW 37.0 mph59.5 kmh 29.27 in991.2 mb 0.00 in0.0 mm 0.00 in/hr0.0 mm/hr 0.00 in0.0 mm
12:35 AM 30.7°F-0.7°C 21.0°F-6.1°C 67% 18.0 mph W29.0 kmh W 32.0 mph51.5 kmh 29.27 in991.2 mb 0.00 in0.0 mm 0.00 in/hr0.0 mm/hr 0.00 in0.0 mm
12:40 AM 30.6°F-0.8°C 20.9°F-6.2°C 67% 17.0 mph W27.4 kmh W 32.0 mph51.5 kmh 29.27 in991.2 mb 0.00 in0.0 mm 0.00 in/hr0.0 mm/hr 0.00 in0.0 mm
12:45 AM 30.7°F-0.7°C 21.0°F-6.1°C 67% 17.0 mph SW27.4 kmh SW 41.0 mph66.0 kmh 29.26 in990.9 mb 0.00 in0.0 mm 0.00 in/hr0.0 mm/hr 0.00 in0.0 mm
12:50 AM 30.7°F-0.7°C 20.7°F-6.3°C 66% 12.0 mph WSW19.3 kmh WSW 39.0 mph62.8 kmh 29.26 in990.9 mb 0.00 in0.0 mm 0.00 in/hr0.0 mm/hr 0.00 in0.0 mm
12:55 AM 30.7°F-0.7°C 20.7°F-6.3°C 66% 14.0 mph WSW22.5 kmh WSW 30.0 mph48.3 kmh 29.26 in990.9 mb 0.00 in0.0 mm 0.00 in/hr0.0 mm/hr 0.00 in0.0 mm
01:00 AM 30.7°F-0.7°C 20.3°F-6.5°C 65% 5.0 mph W8.0 kmh W 37.0 mph59.5 kmh 29.26 in990.9 mb 0.00 in0.0 mm 0.00 in/hr0.0 mm/hr 0.00 in0.0 mm
01:05 AM 30.4°F-0.9°C 20.7°F-6.3°C 67% 11.0 mph WSW17.7 kmh WSW 33.0 mph53.1 kmh 29.26 in990.9 mb 0.00 in0.0 mm 0.00 in/hr0.0 mm/hr 0.00 in0.0 mm
01:12 AM 30.7°F-0.7°C 20.3°F-6.5°C 65% 15.0 mph WSW24.1 kmh WSW 31.0 mph49.9 kmh 29.26 in990.9 mb 0.00 in0.0 mm 0.00 in/hr0.0 mm/hr 0.00 in0.0 mm
01:15 AM 30.4°F-0.9°C 21.1°F-6.1°C 68% 20.0 mph WSW32.2 kmh WSW 25.0 mph40.2 kmh 29.26 in990.9 mb 0.00 in0.0 mm 0.00 in/hr0.0 mm/hr 0.00 in0.0 mm
01:20 AM 30.0°F-1.1°C 21.7°F-5.7°C 71% 23.0 mph WSW37.0 kmh WSW 31.0 mph49.9 kmh 29.26 in990.9 mb 0.00 in0.0 mm 0.00 in/hr0.0 mm/hr 0.00 in0.0 mm
01:25 AM 30.3°F-0.9°C 20.3°F-6.5°C 66% 13.0 mph W20.9 kmh W 27.0 mph43.5 kmh 29.26 in990.9 mb 0.00 in0.0 mm 0.00 in/hr0.0 mm/hr 0.00 in0.0 mm
01:30 AM 30.4°F-0.9°C 20.0°F-6.7°C 65% 13.0 mph SSW20.9 kmh SSW 25.0 mph40.2 kmh 29.25 in990.5 mb 0.00 in0.0 mm 0.00 in/hr0.0 mm/hr 0.00 in0.0 mm
01:35 AM 30.0°F-1.1°C 20.3°F-6.5°C 67% 7.0 mph W11.3 kmh W 23.0 mph37.0 kmh 29.25 in990.5 mb 0.00 in0.0 mm 0.00 in/hr0.0 mm/hr 0.00 in0.0 mm
01:40 AM 29.7°F-1.3°C 21.1°F-6.1°C 70% 7.0 mph W11.3 kmh W 30.0 mph48.3 kmh 29.25 in990.5 mb 0.00 in0.0 mm 0.00 in/hr0.0 mm/hr 0.00 in0.0 mm
01:45 AM 29.3°F-1.5°C 21.4°F-5.9°C 72% 15.0 mph WNW24.1 kmh WNW 27.0 mph43.5 kmh 29.27 in991.2 mb 0.00 in0.0 mm 0.00 in/hr0.0 mm/hr 0.00 in0.0 mm
01:50 AM 29.4°F-1.4°C 20.8°F-6.2°C 70% 12.0 mph SW19.3 kmh SW 22.0 mph35.4 kmh 29.27 in991.2 mb 0.00 in0.0 mm 0.00 in/hr0.0 mm/hr 0.00 in0.0 mm
01:55 AM 29.1°F-1.6°C 21.8°F-5.7°C 74% 9.0 mph SW14.5 kmh SW 22.0 mph35.4 kmh 29.27 in991.2 mb 0.00 in0.0 mm 0.00 in/hr0.0 mm/hr 0.00 in0.0 mm
02:00 AM 28.5°F-1.9°C 22.2°F-5.4°C 77% 5.0 mph W8.0 kmh W 24.0 mph38.6 kmh 29.26 in990.9 mb 0.00 in0.0 mm 0.00 in/hr0.0 mm/hr 0.00 in0.0 mm
02:05 AM 28.2°F-2.1°C 22.2°F-5.4°C 78% 15.0 mph SW24.1 kmh SW 15.0 mph24.1 kmh 29.26 in990.9 mb 0.00 in0.0 mm 0.00 in/hr0.0 mm/hr 0.00 in0.0 mm
02:10 AM 28.7°F-1.8°C 21.7°F-5.7°C 75% 11.0 mph W17.7 kmh W 22.0 mph35.4 kmh 29.26 in990.9 mb 0.00 in0.0 mm 0.00 in/hr0.0 mm/hr 0.00 in0.0 mm
02:15 AM 29.4°F-1.4°C 20.5°F-6.4°C 69% 11.0 mph NW17.7 kmh NW 27.0 mph43.5 kmh 29.26 in990.9 mb 0.00 in0.0 mm 0.00 in/hr0.0 mm/hr 0.00 in0.0 mm
02:20 AM 30.1°F-1.1°C 19.7°F-6.8°C 65% 9.0 mph WSW14.5 kmh WSW 20.0 mph32.2 kmh 29.26 in990.9 mb 0.00 in0.0 mm 0.00 in/hr0.0 mm/hr 0.00 in0.0 mm
02:25 AM 30.6°F-0.8°C 18.7°F-7.4°C 61% 21.0 mph WSW33.8 kmh WSW 25.0 mph40.2 kmh 29.26 in990.9 mb 0.00 in0.0 mm 0.00 in/hr0.0 mm/hr 0.00 in0.0 mm
02:30 AM 31.2°F-0.4°C 17.7°F-7.9°C 57% 18.0 mph WSW29.0 kmh WSW 33.0 mph53.1 kmh 29.25 in990.5 mb 0.00 in0.0 mm 0.00 in/hr0.0 mm/hr 0.00 in0.0 mm
02:35 AM 31.0°F-0.6°C 18.7°F-7.4°C 60% 14.0 mph W22.5 kmh W 32.0 mph51.5 kmh 29.25 in990.5 mb 0.00 in0.0 mm 0.00 in/hr0.0 mm/hr 0.00 in0.0 mm
02:40 AM 30.7°F-0.7°C 18.8°F-7.3°C 61% 8.0 mph NW12.9 kmh NW 26.0 mph41.8 kmh 29.25 in990.5 mb 0.00 in0.0 mm 0.00 in/hr0.0 mm/hr 0.00 in0.0 mm
02:45 AM 30.9°F-0.6°C 17.8°F-7.9°C 58% 16.0 mph W25.7 kmh W 28.0 mph45.1 kmh 29.24 in990.2 mb 0.00 in0.0 mm 0.00 in/hr0.0 mm/hr 0.00 in0.0 mm
02:50 AM 31.9°F-0.1°C 16.2°F-8.8°C 52% 18.0 mph SW29.0 kmh SW 34.0 mph54.7 kmh 29.24 in990.2 mb 0.00 in0.0 mm 0.00 in/hr0.0 mm/hr 0.00 in0.0 mm
02:55 AM 32.7°F0.4°C 15.2°F-9.3°C 48% 19.0 mph WNW30.6 kmh WNW 43.0 mph69.2 kmh 29.24 in990.2 mb 0.00 in0.0 mm 0.00 in/hr0.0 mm/hr 0.00 in0.0 mm
03:00 AM 32.5°F0.3°C 16.4°F-8.7°C 51% 14.0 mph SW22.5 kmh SW 42.0 mph67.6 kmh 29.22 in989.5 mb 0.00 in0.0 mm 0.00 in/hr0.0 mm/hr 0.00 in0.0 mm
03:05 AM 31.6°F-0.2°C 18.1°F-7.7°C 57% 21.0 mph W33.8 kmh W 25.0 mph40.2 kmh 29.22 in989.5 mb 0.00 in0.0 mm 0.00 in/hr0.0 mm/hr 0.00 in0.0 mm
03:10 AM 31.0°F-0.6°C 19.1°F-7.2°C 61% 3.0 mph WSW4.8 kmh WSW 31.0 mph49.9 kmh 29.22 in989.5 mb 0.00 in0.0 mm 0.00 in/hr0.0 mm/hr 0.00 in0.0 mm
03:15 AM 30.3°F-0.9°C 19.6°F-6.9°C 64% 14.0 mph WSW22.5 kmh WSW 28.0 mph45.1 kmh 29.22 in989.5 mb 0.00 in0.0 mm 0.00 in/hr0.0 mm/hr 0.00 in0.0 mm
03:20 AM 30.1°F-1.1°C 19.4°F-7.0°C 64% 12.0 mph SW19.3 kmh SW 33.0 mph53.1 kmh 29.22 in989.5 mb 0.00 in0.0 mm 0.00 in/hr0.0 mm/hr 0.00 in0.0 mm
03:25 AM 30.0°F-1.1°C 20.0°F-6.7°C 66% 27.0 mph NNW43.5 kmh NNW 32.0 mph51.5 kmh 29.22 in989.5 mb 0.00 in0.0 mm 0.00 in/hr0.0 mm/hr 0.00 in0.0 mm
03:30 AM 27.2°F-2.7°C 22.7°F-5.2°C 83% 9.0 mph NW14.5 kmh NW 36.0 mph57.9 kmh 29.28 in991.5 mb 0.00 in0.0 mm 0.00 in/hr0.0 mm/hr 0.00 in0.0 mm
03:35 AM 26.1°F-3.3°C 22.7°F-5.2°C 87% 13.0 mph NNW20.9 kmh NNW 28.0 mph45.1 kmh 29.28 in991.5 mb 0.00 in0.0 mm 0.00 in/hr0.0 mm/hr 0.00 in0.0 mm
03:40 AM 25.8°F-3.4°C 22.7°F-5.2°C 88% 5.0 mph NNE8.0 kmh NNE 19.0 mph30.6 kmh 29.28 in991.5 mb 0.00 in0.0 mm 0.00 in/hr0.0 mm/hr 0.00 in0.0 mm
03:45 AM 25.8°F-3.4°C 23.0°F-5.0°C 89% 2.0 mph NW3.2 kmh NW 14.0 mph22.5 kmh 29.28 in991.5 mb 0.00 in0.0 mm 0.00 in/hr0.0 mm/hr 0.00 in0.0 mm
03:50 AM 25.7°F-3.5°C 22.9°F-5.1°C 89% 3.0 mph WSW4.8 kmh WSW 8.0 mph12.9 kmh 29.28 in991.5 mb 0.00 in0.0 mm 0.00 in/hr0.0 mm/hr 0.00 in0.0 mm
03:55 AM 25.6°F-3.6°C 22.8°F-5.1°C 89% 13.0 mph SW20.9 kmh SW 16.0 mph25.7 kmh 29.28 in991.5 mb 0.00 in0.0 mm 0.00 in/hr0.0 mm/hr 0.00 in0.0 mm
04:00 AM 25.0°F-3.9°C 22.2°F-5.4°C 89% 14.0 mph WNW22.5 kmh WNW 30.0 mph48.3 kmh 29.28 in991.5 mb 0.00 in0.0 mm 0.00 in/hr0.0 mm/hr 0.00 in0.0 mm
04:05 AM 24.5°F-4.2°C 21.7°F-5.7°C 89% 8.0 mph NW12.9 kmh NW 23.0 mph37.0 kmh 29.28 in991.5 mb 0.00 in0.0 mm 0.00 in/hr0.0 mm/hr 0.00 in0.0 mm
04:10 AM 24.2°F-4.3°C 21.6°F-5.8°C 90% 22.0 mph NW35.4 kmh NW 32.0 mph51.5 kmh 29.28 in991.5 mb 0.00 in0.0 mm 0.00 in/hr0.0 mm/hr 0.00 in0.0 mm
04:15 AM 24.1°F-4.4°C 21.6°F-5.8°C 90% 22.0 mph WNW35.4 kmh WNW 30.0 mph48.3 kmh 29.27 in991.2 mb 0.00 in0.0 mm 0.00 in/hr0.0 mm/hr 0.00 in0.0 mm
04:20 AM 23.9°F-4.5°C 21.4°F-5.9°C 90% 18.0 mph W29.0 kmh W 33.0 mph53.1 kmh 29.27 in991.2 mb 0.00 in0.0 mm 0.00 in/hr0.0 mm/hr 0.00 in0.0 mm
04:25 AM 23.8°F-4.6°C 21.3°F-5.9°C 90% 4.0 mph W6.4 kmh W 31.0 mph49.9 kmh 29.27 in991.2 mb 0.00 in0.0 mm 0.00 in/hr0.0 mm/hr 0.00 in0.0 mm
04:30 AM 23.6°F-4.7°C 21.1°F-6.1°C 90% 23.0 mph WNW37.0 kmh WNW 31.0 mph49.9 kmh 29.28 in991.5 mb 0.00 in0.0 mm 0.00 in/hr0.0 mm/hr 0.00 in0.0 mm
04:35 AM 23.5°F-4.7°C 21.0°F-6.1°C 90% 11.0 mph WNW17.7 kmh WNW 28.0 mph45.1 kmh 29.28 in991.5 mb 0.00 in0.0 mm 0.00 in/hr0.0 mm/hr 0.00 in0.0 mm
04:40 AM 23.3°F-4.8°C 20.8°F-6.2°C 90% 15.0 mph NW24.1 kmh NW 27.0 mph43.5 kmh 29.28 in991.5 mb 0.00 in0.0 mm 0.00 in/hr0.0 mm/hr 0.00 in0.0 mm
04:45 AM 23.3°F-4.8°C 20.8°F-6.2°C 90% 5.0 mph NW8.0 kmh NW 27.0 mph43.5 kmh 29.29 in991.9 mb 0.00 in0.0 mm 0.00 in/hr0.0 mm/hr 0.00 in0.0 mm
04:50 AM 23.3°F-4.8°C 20.8°F-6.2°C 90% 9.0 mph W14.5 kmh W 22.0 mph35.4 kmh 29.29 in991.9 mb 0.00 in0.0 mm 0.00 in/hr0.0 mm/hr 0.00 in0.0 mm
04:55 AM 23.3°F-4.8°C 20.8°F-6.2°C 90% 5.0 mph W8.0 kmh W 21.0 mph33.8 kmh 29.29 in991.9 mb 0.00 in0.0 mm 0.00 in/hr0.0 mm/hr 0.00 in0.0 mm
05:00 AM 23.2°F-4.9°C 20.7°F-6.3°C 90% 6.0 mph WSW9.7 kmh WSW 10.0 mph16.1 kmh 29.28 in991.5 mb 0.00 in0.0 mm 0.00 in/hr0.0 mm/hr 0.00 in0.0 mm
05:05 AM 22.9°F-5.1°C 20.1°F-6.6°C 89% 23.0 mph N37.0 kmh N 23.0 mph37.0 kmh 29.28 in991.5 mb 0.00 in0.0 mm 0.00 in/hr0.0 mm/hr 0.00 in0.0 mm
05:10 AM 22.2°F-5.4°C 19.4°F-7.0°C 89% 16.0 mph WNW25.7 kmh WNW 30.0 mph48.3 kmh 29.28 in991.5 mb 0.00 in0.0 mm 0.00 in/hr0.0 mm/hr 0.00 in0.0 mm
05:15 AM 21.8°F-5.7°C 18.8°F-7.3°C 88% 8.0 mph NW12.9 kmh NW 27.0 mph43.5 kmh 29.33 in993.2 mb 0.00 in0.0 mm 0.00 in/hr0.0 mm/hr 0.00 in0.0 mm
05:20 AM 21.3°F-5.9°C 18.3°F-7.6°C 88% 3.0 mph NW4.8 kmh NW 23.0 mph37.0 kmh 29.33 in993.2 mb 0.00 in0.0 mm 0.00 in/hr0.0 mm/hr 0.00 in0.0 mm
05:25 AM 20.6°F-6.3°C 17.6°F-8.0°C 88% 19.0 mph SW30.6 kmh SW 29.0 mph46.7 kmh 29.33 in993.2 mb 0.00 in0.0 mm 0.00 in/hr0.0 mm/hr 0.00 in0.0 mm
05:30 AM 20.0°F-6.7°C 17.0°F-8.3°C 88% 8.0 mph NW12.9 kmh NW 26.0 mph41.8 kmh 29.34 in993.6 mb 0.00 in0.0 mm 0.00 in/hr0.0 mm/hr 0.00 in0.0 mm
05:35 AM 19.5°F-6.9°C 16.2°F-8.8°C 87% 4.0 mph W6.4 kmh W 27.0 mph43.5 kmh 29.34 in993.6 mb 0.00 in0.0 mm 0.00 in/hr0.0 mm/hr 0.00 in0.0 mm
05:40 AM 19.2°F-7.1°C 16.2°F-8.8°C 88% 26.0 mph W41.8 kmh W 27.0 mph43.5 kmh 29.34 in993.6 mb 0.00 in0.0 mm 0.00 in/hr0.0 mm/hr 0.00 in0.0 mm
05:45 AM 19.1°F-7.2°C 16.1°F-8.8°C 88% 12.0 mph N19.3 kmh N 25.0 mph40.2 kmh 29.34 in993.6 mb 0.00 in0.0 mm 0.00 in/hr0.0 mm/hr 0.00 in0.0 mm
05:50 AM 18.8°F-7.3°C 15.5°F-9.2°C 87% 15.0 mph WNW24.1 kmh WNW 27.0 mph43.5 kmh 29.34 in993.6 mb 0.00 in0.0 mm 0.00 in/hr0.0 mm/hr 0.00 in0.0 mm
05:55 AM 18.6°F-7.4°C 15.3°F-9.3°C 87% 5.0 mph WNW8.0 kmh WNW 22.0 mph35.4 kmh 29.34 in993.6 mb 0.00 in0.0 mm 0.00 in/hr0.0 mm/hr 0.00 in0.0 mm
06:00 AM 18.4°F-7.6°C 15.4°F-9.2°C 88% 5.0 mph W8.0 kmh W 12.0 mph19.3 kmh 29.35 in993.9 mb 0.00 in0.0 mm 0.00 in/hr0.0 mm/hr 0.00 in0.0 mm
06:05 AM 18.4°F-7.6°C 15.1°F-9.4°C 87% 2.0 mph NNW3.2 kmh NNW 12.0 mph19.3 kmh 29.35 in993.9 mb 0.00 in0.0 mm 0.00 in/hr0.0 mm/hr 0.00 in0.0 mm
06:10 AM 18.3°F-7.6°C 15.0°F-9.4°C 87% 3.0 mph W4.8 kmh W 17.0 mph27.4 kmh 29.35 in993.9 mb 0.00 in0.0 mm 0.00 in/hr0.0 mm/hr 0.00 in0.0 mm
06:15 AM 18.0°F-7.8°C 14.7°F-9.6°C 87% 1.0 mph NE1.6 kmh NE 11.0 mph17.7 kmh 29.35 in993.9 mb 0.00 in0.0 mm 0.00 in/hr0.0 mm/hr 0.00 in0.0 mm
06:20 AM 18.0°F-7.8°C 14.7°F-9.6°C 87% 2.0 mph W3.2 kmh W 13.0 mph20.9 kmh 29.35 in993.9 mb 0.00 in0.0 mm 0.00 in/hr0.0 mm/hr 0.00 in0.0 mm
06:25 AM 17.7°F-7.9°C 14.5°F-9.7°C 87% 3.0 mph WNW4.8 kmh WNW 16.0 mph25.7 kmh 29.35 in993.9 mb 0.00 in0.0 mm 0.00 in/hr0.0 mm/hr 0.00 in0.0 mm
06:30 AM 17.5°F-8.1°C 14.3°F-9.8°C 87% 3.0 mph W4.8 kmh W 19.0 mph30.6 kmh 29.36 in994.2 mb 0.00 in0.0 mm 0.00 in/hr0.0 mm/hr 0.00 in0.0 mm
06:35 AM 17.3°F-8.2°C 14.1°F-9.9°C 87% 3.0 mph W4.8 kmh W 10.0 mph16.1 kmh 29.36 in994.2 mb 0.00 in0.0 mm 0.00 in/hr0.0 mm/hr 0.00 in0.0 mm
06:40 AM 17.2°F-8.2°C 14.0°F-10.0°C 87% 7.0 mph WSW11.3 kmh WSW 10.0 mph16.1 kmh 29.36 in994.2 mb 0.00 in0.0 mm 0.00 in/hr0.0 mm/hr 0.00 in0.0 mm
06:45 AM 17.2°F-8.2°C 14.0°F-10.0°C 87% 5.0 mph WSW8.0 kmh WSW 11.0 mph17.7 kmh 29.38 in994.9 mb 0.00 in0.0 mm 0.00 in/hr0.0 mm/hr 0.00 in0.0 mm
06:50 AM 17.2°F-8.2°C 14.0°F-10.0°C 87% 6.0 mph NW9.7 kmh NW 15.0 mph24.1 kmh 29.38 in994.9 mb 0.00 in0.0 mm 0.00 in/hr0.0 mm/hr 0.00 in0.0 mm
06:55 AM 17.2°F-8.2°C 14.0°F-10.0°C 87% 2.0 mph NW3.2 kmh NW 10.0 mph16.1 kmh 29.38 in994.9 mb 0.00 in0.0 mm 0.00 in/hr0.0 mm/hr 0.00 in0.0 mm
07:00 AM 17.0°F-8.3°C 13.8°F-10.1°C 87% 4.0 mph NW6.4 kmh NW 8.0 mph12.9 kmh 29.38 in994.9 mb 0.00 in0.0 mm 0.00 in/hr0.0 mm/hr 0.00 in0.0 mm
07:05 AM 17.0°F-8.3°C 13.5°F-10.3°C 86% 4.0 mph N6.4 kmh N 10.0 mph16.1 kmh 29.38 in994.9 mb 0.00 in0.0 mm 0.00 in/hr0.0 mm/hr 0.00 in0.0 mm
07:10 AM 16.9°F-8.4°C 13.4°F-10.3°C 86% 5.0 mph NW8.0 kmh NW 10.0 mph16.1 kmh 29.38 in994.9 mb 0.00 in0.0 mm 0.00 in/hr0.0 mm/hr 0.00 in0.0 mm
07:15 AM 16.5°F-8.6°C 13.0°F-10.6°C 86% Calm Calm 8.0 mph12.9 kmh 29.40 in995.6 mb 0.00 in0.0 mm 0.00 in/hr0.0 mm/hr 0.00 in0.0 mm
07:20 AM 16.5°F-8.6°C 13.0°F-10.6°C 86% 2.0 mph SW3.2 kmh SW 6.0 mph9.7 kmh 29.40 in995.6 mb 0.00 in0.0 mm 0.00 in/hr0.0 mm/hr 0.00 in0.0 mm
07:25 AM 16.4°F-8.7°C 12.9°F-10.6°C 86% 7.0 mph SW11.3 kmh SW 8.0 mph12.9 kmh 29.40 in995.6 mb 0.00 in0.0 mm 0.00 in/hr0.0 mm/hr 0.00 in0.0 mm
07:30 AM 16.1°F-8.8°C 12.4°F-10.9°C 85% 17.0 mph NW27.4 kmh NW 22.0 mph35.4 kmh 29.40 in995.6 mb 0.00 in0.0 mm 0.00 in/hr0.0 mm/hr 0.00 in0.0 mm
07:35 AM 15.4°F-9.2°C 11.4°F-11.4°C 84% 9.0 mph W14.5 kmh W 41.0 mph66.0 kmh 29.40 in995.6 mb 0.00 in0.0 mm 0.00 in/hr0.0 mm/hr 0.00 in0.0 mm
07:40 AM 15.2°F-9.3°C 11.2°F-11.6°C 84% 16.0 mph NW25.7 kmh NW 33.0 mph53.1 kmh 29.40 in995.6 mb 0.00 in0.0 mm 0.00 in/hr0.0 mm/hr 0.00 in0.0 mm
07:45 AM 14.8°F-9.6°C 10.8°F-11.8°C 84% 10.0 mph WNW16.1 kmh WNW 28.0 mph45.1 kmh 29.41 in995.9 mb 0.00 in0.0 mm 0.00 in/hr0.0 mm/hr 0.00 in0.0 mm
07:50 AM 14.6°F-9.7°C 10.6°F-11.9°C 84% 13.0 mph N20.9 kmh N 31.0 mph49.9 kmh 29.41 in995.9 mb 0.00 in0.0 mm 0.00 in/hr0.0 mm/hr 0.00 in0.0 mm
07:55 AM 14.4°F-9.8°C 10.4°F-12.0°C 84% 6.0 mph WNW9.7 kmh WNW 19.0 mph30.6 kmh 29.41 in995.9 mb 0.00 in0.0 mm 0.00 in/hr0.0 mm/hr 0.00 in0.0 mm
08:00 AM 14.3°F-9.8°C 10.1°F-12.2°C 83% 20.0 mph NNW32.2 kmh NNW 26.0 mph41.8 kmh 29.43 in996.6 mb 0.00 in0.0 mm 0.00 in/hr0.0 mm/hr 0.00 in0.0 mm
08:05 AM 14.3°F-9.8°C 10.1°F-12.2°C 83% 22.0 mph NW35.4 kmh NW 26.0 mph41.8 kmh 29.43 in996.6 mb 0.00 in0.0 mm 0.00 in/hr0.0 mm/hr 0.00 in0.0 mm
08:10 AM 14.1°F-9.9°C 9.9°F-12.3°C 83% 15.0 mph WNW24.1 kmh WNW 21.0 mph33.8 kmh 29.43 in996.6 mb 0.00 in0.0 mm 0.00 in/hr0.0 mm/hr 0.00 in0.0 mm
08:15 AM 14.0°F-10.0°C 9.8°F-12.3°C 83% 16.0 mph WNW25.7 kmh WNW 26.0 mph41.8 kmh 29.43 in996.6 mb 0.00 in0.0 mm 0.00 in/hr0.0 mm/hr 0.00 in0.0 mm
08:20 AM 14.0°F-10.0°C 9.5°F-12.5°C 82% 4.0 mph WNW6.4 kmh WNW 16.0 mph25.7 kmh 29.43 in996.6 mb 0.00 in0.0 mm 0.00 in/hr0.0 mm/hr 0.00 in0.0 mm
08:25 AM 13.8°F-10.1°C 9.3°F-12.6°C 82% 20.0 mph NW32.2 kmh NW 26.0 mph41.8 kmh 29.43 in996.6 mb 0.00 in0.0 mm 0.00 in/hr0.0 mm/hr 0.00 in0.0 mm
08:31 AM 13.5°F-10.3°C 9.0°F-12.8°C 82% 6.0 mph WNW9.7 kmh WNW 27.0 mph43.5 kmh 29.46 in997.6 mb 0.00 in0.0 mm 0.00 in/hr0.0 mm/hr 0.00 in0.0 mm
08:35 AM 13.3°F-10.4°C 8.8°F-12.9°C 82% 5.0 mph W8.0 kmh W 17.0 mph27.4 kmh 29.46 in997.6 mb 0.00 in0.0 mm 0.00 in/hr0.0 mm/hr 0.00 in0.0 mm
08:40 AM 13.1°F-10.5°C 8.9°F-12.8°C 83% 3.0 mph NW4.8 kmh NW 24.0 mph38.6 kmh 29.46 in997.6 mb 0.00 in0.0 mm 0.00 in/hr0.0 mm/hr 0.00 in0.0 mm
08:45 AM 13.3°F-10.4°C 8.8°F-12.9°C 82% 4.0 mph W6.4 kmh W 15.0 mph24.1 kmh 29.47 in998.0 mb 0.00 in0.0 mm 0.00 in/hr0.0 mm/hr 0.00 in0.0 mm
08:50 AM 13.3°F-10.4°C 8.8°F-12.9°C 82% 4.0 mph W6.4 kmh W 18.0 mph29.0 kmh 29.47 in998.0 mb 0.00 in0.0 mm 0.00 in/hr0.0 mm/hr 0.00 in0.0 mm
08:55 AM 13.3°F-10.4°C 8.5°F-13.1°C 81% 8.0 mph WNW12.9 kmh WNW 19.0 mph30.6 kmh 29.47 in998.0 mb 0.00 in0.0 mm 0.00 in/hr0.0 mm/hr 0.00 in0.0 mm
09:00 AM 13.3°F-10.4°C 8.5°F-13.1°C 81% 9.0 mph NW14.5 kmh NW 20.0 mph32.2 kmh 29.49 in998.6 mb 0.00 in0.0 mm 0.00 in/hr0.0 mm/hr 0.00 in0.0 mm
09:05 AM 13.1°F-10.5°C 8.6°F-13.0°C 82% 6.0 mph NW9.7 kmh NW 15.0 mph24.1 kmh 29.49 in998.6 mb 0.00 in0.0 mm 0.00 in/hr0.0 mm/hr 0.00 in0.0 mm
09:10 AM 12.9°F-10.6°C 8.4°F-13.1°C 82% 9.0 mph W14.5 kmh W 20.0 mph32.2 kmh 29.49 in998.6 mb 0.00 in0.0 mm 0.00 in/hr0.0 mm/hr 0.00 in0.0 mm
09:15 AM 12.8°F-10.7°C 8.6°F-13.0°C 83% 6.0 mph WNW9.7 kmh WNW 12.0 mph19.3 kmh 29.51 in999.3 mb 0.00 in0.0 mm 0.00 in/hr0.0 mm/hr 0.00 in0.0 mm
09:20 AM 12.8°F-10.7°C 8.6°F-13.0°C 83% 5.0 mph WNW8.0 kmh WNW 9.0 mph14.5 kmh 29.51 in999.3 mb 0.00 in0.0 mm 0.00 in/hr0.0 mm/hr 0.00 in0.0 mm
09:25 AM 12.8°F-10.7°C 8.6°F-13.0°C 83% 7.0 mph NW11.3 kmh NW 10.0 mph16.1 kmh 29.51 in999.3 mb 0.00 in0.0 mm 0.00 in/hr0.0 mm/hr 0.00 in0.0 mm
09:30 AM 12.8°F-10.7°C 8.6°F-13.0°C 83% 6.0 mph WSW9.7 kmh WSW 11.0 mph17.7 kmh 29.52 in999.7 mb 0.00 in0.0 mm 0.00 in/hr0.0 mm/hr 0.00 in0.0 mm
09:35 AM 12.8°F-10.7°C 8.6°F-13.0°C 83% 2.0 mph WSW3.2 kmh WSW 12.0 mph19.3 kmh 29.52 in999.7 mb 0.00 in0.0 mm 0.00 in/hr0.0 mm/hr 0.00 in0.0 mm
09:40 AM 12.8°F-10.7°C 8.6°F-13.0°C 83% 2.0 mph W3.2 kmh W 10.0 mph16.1 kmh 29.52 in999.7 mb 0.00 in0.0 mm 0.00 in/hr0.0 mm/hr 0.00 in0.0 mm
09:45 AM 12.8°F-10.7°C 8.6°F-13.0°C 83% 11.0 mph NW17.7 kmh NW 16.0 mph25.7 kmh 29.53 in1000.0 mb 0.00 in0.0 mm 0.00 in/hr0.0 mm/hr 0.00 in0.0 mm
09:50 AM 12.8°F-10.7°C 8.3°F-13.2°C 82% 11.0 mph WSW17.7 kmh WSW 24.0 mph38.6 kmh 29.53 in1000.0 mb 0.00 in0.0 mm 0.00 in/hr0.0 mm/hr 0.00 in0.0 mm
09:55 AM 12.8°F-10.7°C 7.8°F-13.4°C 80% 11.0 mph NW17.7 kmh NW 26.0 mph41.8 kmh 29.53 in1000.0 mb 0.00 in0.0 mm 0.00 in/hr0.0 mm/hr 0.00 in0.0 mm
10:00 AM 12.6°F-10.8°C 7.0°F-13.9°C 78% 14.0 mph NW22.5 kmh NW 24.0 mph38.6 kmh 29.53 in1000.0 mb 0.00 in0.0 mm 0.00 in/hr0.0 mm/hr 0.00 in0.0 mm
10:05 AM 12.9°F-10.6°C 7.0°F-13.9°C 77% 7.0 mph NW11.3 kmh NW 21.0 mph33.8 kmh 29.53 in1000.0 mb 0.00 in0.0 mm 0.00 in/hr0.0 mm/hr 0.00 in0.0 mm
10:10 AM 13.3°F-10.4°C 6.8°F-14.0°C 75% 10.0 mph NW16.1 kmh NW 19.0 mph30.6 kmh 29.53 in1000.0 mb 0.00 in0.0 mm 0.00 in/hr0.0 mm/hr 0.00 in0.0 mm
10:15 AM 13.5°F-10.3°C 6.1°F-14.4°C 72% 16.0 mph NW25.7 kmh NW 26.0 mph41.8 kmh 29.54 in1000.3 mb 0.00 in0.0 mm 0.00 in/hr0.0 mm/hr 0.00 in0.0 mm
10:20 AM 13.8°F-10.1°C 5.8°F-14.6°C 70% 7.0 mph NW11.3 kmh NW 19.0 mph30.6 kmh 29.54 in1000.3 mb 0.00 in0.0 mm 0.00 in/hr0.0 mm/hr 0.00 in0.0 mm
10:25 AM 14.3°F-9.8°C 6.9°F-13.9°C 72% 5.0 mph W8.0 kmh W 13.0 mph20.9 kmh 29.54 in1000.3 mb 0.00 in0.0 mm 0.00 in/hr0.0 mm/hr 0.00 in0.0 mm
10:30 AM 14.4°F-9.8°C 7.3°F-13.7°C 73% 4.0 mph NW6.4 kmh NW 11.0 mph17.7 kmh 29.54 in1000.3 mb 0.00 in0.0 mm 0.00 in/hr0.0 mm/hr 0.00 in0.0 mm
10:35 AM 14.3°F-9.8°C 6.9°F-13.9°C 72% 6.0 mph NW9.7 kmh NW 11.0 mph17.7 kmh 29.54 in1000.3 mb 0.00 in0.0 mm 0.00 in/hr0.0 mm/hr 0.00 in0.0 mm
10:40 AM 13.5°F-10.3°C 6.1°F-14.4°C 72% 5.0 mph W8.0 kmh W 23.0 mph37.0 kmh 29.54 in1000.3 mb 0.00 in0.0 mm 0.00 in/hr0.0 mm/hr 0.00 in0.0 mm
10:45 AM 12.8°F-10.7°C 5.5°F-14.7°C 72% 9.0 mph NW14.5 kmh NW 20.0 mph32.2 kmh 29.57 in1001.4 mb 0.00 in0.0 mm 0.00 in/hr0.0 mm/hr 0.00 in0.0 mm
10:50 AM 12.9°F-10.6°C 4.3°F-15.4°C 68% 5.0 mph W8.0 kmh W 21.0 mph33.8 kmh 29.57 in1001.4 mb 0.00 in0.0 mm 0.00 in/hr0.0 mm/hr 0.00 in0.0 mm
10:55 AM 13.1°F-10.5°C 3.2°F-16.0°C 64% 5.0 mph NW8.0 kmh NW 19.0 mph30.6 kmh 29.57 in1001.4 mb 0.00 in0.0 mm 0.00 in/hr0.0 mm/hr 0.00 in0.0 mm
11:00 AM 13.1°F-10.5°C 2.2°F-16.6°C 61% 13.0 mph WNW20.9 kmh WNW 24.0 mph38.6 kmh 29.57 in1001.4 mb 0.00 in0.0 mm 0.00 in/hr0.0 mm/hr 0.00 in0.0 mm
11:05 AM 12.8°F-10.7°C 1.5°F-16.9°C 60% 11.0 mph WNW17.7 kmh WNW 22.0 mph35.4 kmh 29.57 in1001.4 mb 0.00 in0.0 mm 0.00 in/hr0.0 mm/hr 0.00 in0.0 mm
11:10 AM 12.6°F-10.8°C 0.6°F-17.4°C 58% 13.0 mph NW20.9 kmh NW 31.0 mph49.9 kmh 29.57 in1001.4 mb 0.00 in0.0 mm 0.00 in/hr0.0 mm/hr 0.00 in0.0 mm
11:15 AM 12.4°F-10.9°C 1.5°F-16.9°C 61% 17.0 mph NW27.4 kmh NW 25.0 mph40.2 kmh 29.58 in1001.7 mb 0.00 in0.0 mm 0.00 in/hr0.0 mm/hr 0.00 in0.0 mm
11:20 AM 11.9°F-11.2°C -5537.2°C 54% 17.0 mph NW27.4 kmh NW 33.0 mph53.1 kmh 29.58 in1001.7 mb 0.00 in0.0 mm 0.00 in/hr0.0 mm/hr 0.00 in0.0 mm
11:25 AM 12.3°F-10.9°C -5537.2°C 56% 12.0 mph WSW19.3 kmh WSW 27.0 mph43.5 kmh 29.58 in1001.7 mb 0.00 in0.0 mm 0.00 in/hr0.0 mm/hr 0.00 in0.0 mm
11:30 AM 12.3°F-10.9°C -5537.2°C 53% 18.0 mph WNW29.0 kmh WNW 34.0 mph54.7 kmh 29.60 in1002.4 mb 0.00 in0.0 mm 0.00 in/hr0.0 mm/hr 0.00 in0.0 mm
11:35 AM 12.6°F-10.8°C 0.2°F-17.7°C 57% 3.0 mph W4.8 kmh W 29.0 mph46.7 kmh 29.60 in1002.4 mb 0.00 in0.0 mm 0.00 in/hr0.0 mm/hr 0.00 in0.0 mm
11:40 AM 12.9°F-10.6°C -5537.2°C 54% 9.0 mph WSW14.5 kmh WSW 27.0 mph43.5 kmh 29.60 in1002.4 mb 0.00 in0.0 mm 0.00 in/hr0.0 mm/hr 0.00 in0.0 mm
11:45 AM 13.1°F-10.5°C 0.0°F-17.8°C 55% 7.0 mph WSW11.3 kmh WSW 24.0 mph38.6 kmh 29.61 in1002.7 mb 0.00 in0.0 mm 0.00 in/hr0.0 mm/hr 0.00 in0.0 mm
11:50 AM 12.9°F-10.6°C -5537.2°C 51% 19.0 mph NW30.6 kmh NW 31.0 mph49.9 kmh 29.61 in1002.7 mb 0.00 in0.0 mm 0.00 in/hr0.0 mm/hr 0.00 in0.0 mm
11:55 AM 12.8°F-10.7°C -5537.2°C 55% 7.0 mph SW11.3 kmh SW 19.0 mph30.6 kmh 29.61 in1002.7 mb 0.00 in0.0 mm 0.00 in/hr0.0 mm/hr 0.00 in0.0 mm
12:00 PM 12.6°F-10.8°C -5537.2°C 52% 9.0 mph W14.5 kmh W 30.0 mph48.3 kmh 29.63 in1003.4 mb 0.00 in0.0 mm 0.00 in/hr0.0 mm/hr 0.00 in0.0 mm
12:05 PM 12.4°F-10.9°C -5537.2°C 52% 18.0 mph NW29.0 kmh NW 26.0 mph41.8 kmh 29.63 in1003.4 mb 0.00 in0.0 mm 0.00 in/hr0.0 mm/hr 0.00 in0.0 mm
12:10 PM 12.6°F-10.8°C -5537.2°C 52% 15.0 mph NNW24.1 kmh NNW 23.0 mph37.0 kmh 29.63 in1003.4 mb 0.00 in0.0 mm 0.00 in/hr0.0 mm/hr 0.00 in0.0 mm
12:15 PM 13.3°F-10.4°C -5537.2°C 51% 12.0 mph W19.3 kmh W 22.0 mph35.4 kmh 29.63 in1003.4 mb 0.00 in0.0 mm 0.00 in/hr0.0 mm/hr 0.00 in0.0 mm
12:20 PM 12.6°F-10.8°C -5537.2°C 55% 8.0 mph NNW12.9 kmh NNW 29.0 mph46.7 kmh 29.63 in1003.4 mb 0.00 in0.0 mm 0.00 in/hr0.0 mm/hr 0.00 in0.0 mm
12:25 PM 12.1°F-11.1°C 1.6°F-16.9°C 62% 12.0 mph NW19.3 kmh NW 18.0 mph29.0 kmh 29.63 in1003.4 mb 0.00 in0.0 mm 0.00 in/hr0.0 mm/hr 0.00 in0.0 mm
12:30 PM 11.7°F-11.3°C 2.8°F-16.2°C 67% 13.0 mph NW20.9 kmh NW 18.0 mph29.0 kmh 29.65 in1004.1 mb 0.00 in0.0 mm 0.00 in/hr0.0 mm/hr 0.00 in0.0 mm
12:35 PM 11.7°F-11.3°C 2.2°F-16.6°C 65% 7.0 mph W11.3 kmh W 15.0 mph24.1 kmh 29.65 in1004.1 mb 0.00 in0.0 mm 0.00 in/hr0.0 mm/hr 0.00 in0.0 mm
12:40 PM 11.9°F-11.2°C 3.0°F-16.1°C 67% 11.0 mph NW17.7 kmh NW 18.0 mph29.0 kmh 29.65 in1004.1 mb 0.00 in0.0 mm 0.00 in/hr0.0 mm/hr 0.00 in0.0 mm
12:45 PM 12.3°F-10.9°C 4.1°F-15.5°C 69% 7.0 mph WNW11.3 kmh WNW 13.0 mph20.9 kmh 29.65 in1004.1 mb 0.00 in0.0 mm 0.00 in/hr0.0 mm/hr 0.00 in0.0 mm
12:50 PM 12.4°F-10.9°C 4.5°F-15.3°C 70% 5.0 mph WNW8.0 kmh WNW 15.0 mph24.1 kmh 29.65 in1004.1 mb 0.00 in0.0 mm 0.00 in/hr0.0 mm/hr 0.00 in0.0 mm
12:55 PM 12.8°F-10.7°C 2.6°F-16.3°C 63% 13.0 mph W20.9 kmh W 17.0 mph27.4 kmh 29.65 in1004.1 mb 0.00 in0.0 mm 0.00 in/hr0.0 mm/hr 0.00 in0.0 mm
01:00 PM 12.4°F-10.9°C 2.5°F-16.4°C 64% 14.0 mph WNW22.5 kmh WNW 17.0 mph27.4 kmh 29.65 in1004.1 mb 0.00 in0.0 mm 0.00 in/hr0.0 mm/hr 0.00 in0.0 mm
01:05 PM 11.7°F-11.3°C 2.2°F-16.6°C 65% 4.0 mph W6.4 kmh W 18.0 mph29.0 kmh 29.65 in1004.1 mb 0.00 in0.0 mm 0.00 in/hr0.0 mm/hr 0.00 in0.0 mm
01:10 PM 11.6°F-11.3°C 3.7°F-15.7°C 70% 4.0 mph W6.4 kmh W 10.0 mph16.1 kmh 29.65 in1004.1 mb 0.00 in0.0 mm 0.00 in/hr0.0 mm/hr 0.00 in0.0 mm
01:15 PM 11.7°F-11.3°C 2.8°F-16.2°C 67% 7.0 mph W11.3 kmh W 17.0 mph27.4 kmh 29.66 in1004.4 mb 0.00 in0.0 mm 0.00 in/hr0.0 mm/hr 0.00 in0.0 mm
01:20 PM 11.9°F-11.2°C 3.0°F-16.1°C 67% 5.0 mph NW8.0 kmh NW 11.0 mph17.7 kmh 29.66 in1004.4 mb 0.00 in0.0 mm 0.00 in/hr0.0 mm/hr 0.00 in0.0 mm
01:25 PM 11.6°F-11.3°C 3.1°F-16.1°C 68% 11.0 mph NW17.7 kmh NW 11.0 mph17.7 kmh 29.66 in1004.4 mb 0.00 in0.0 mm 0.00 in/hr0.0 mm/hr 0.00 in0.0 mm
01:30 PM 11.4°F-11.4°C 3.2°F-16.0°C 69% 8.0 mph NW12.9 kmh NW 12.0 mph19.3 kmh 29.66 in1004.4 mb 0.00 in0.0 mm 0.00 in/hr0.0 mm/hr 0.00 in0.0 mm
01:35 PM 11.4°F-11.4°C 2.2°F-16.6°C 66% 5.0 mph NW8.0 kmh NW 11.0 mph17.7 kmh 29.66 in1004.4 mb 0.00 in0.0 mm 0.00 in/hr0.0 mm/hr 0.00 in0.0 mm
01:40 PM 11.4°F-11.4°C 3.5°F-15.8°C 70% 6.0 mph W9.7 kmh W 9.0 mph14.5 kmh 29.66 in1004.4 mb 0.00 in0.0 mm 0.00 in/hr0.0 mm/hr 0.00 in0.0 mm
01:45 PM 10.9°F-11.7°C 4.5°F-15.3°C 75% 6.0 mph W9.7 kmh W 12.0 mph19.3 kmh 29.67 in1004.7 mb 0.00 in0.0 mm 0.00 in/hr0.0 mm/hr 0.00 in0.0 mm
01:50 PM 10.5°F-11.9°C 4.7°F-15.2°C 77% 3.0 mph WNW4.8 kmh WNW 7.0 mph11.3 kmh 29.67 in1004.7 mb 0.00 in0.0 mm 0.00 in/hr0.0 mm/hr 0.00 in0.0 mm
01:55 PM 10.9°F-11.7°C 4.2°F-15.4°C 74% 1.0 mph W1.6 kmh W 15.0 mph24.1 kmh 29.67 in1004.7 mb 0.00 in0.0 mm 0.00 in/hr0.0 mm/hr 0.00 in0.0 mm
02:00 PM 11.4°F-11.4°C 3.5°F-15.8°C 70% 7.0 mph WNW11.3 kmh WNW 13.0 mph20.9 kmh 29.67 in1004.7 mb 0.00 in0.0 mm 0.00 in/hr0.0 mm/hr 0.00 in0.0 mm
02:05 PM 12.9°F-10.6°C 2.3°F-16.5°C 62% 9.0 mph W14.5 kmh W 14.0 mph22.5 kmh 29.67 in1004.7 mb 0.00 in0.0 mm 0.00 in/hr0.0 mm/hr 0.00 in0.0 mm
02:10 PM 13.5°F-10.3°C 0.3°F-17.6°C 55% 13.0 mph W20.9 kmh W 19.0 mph30.6 kmh 29.67 in1004.7 mb 0.00 in0.0 mm 0.00 in/hr0.0 mm/hr 0.00 in0.0 mm
02:15 PM 13.1°F-10.5°C -5537.2°C 54% 10.0 mph W16.1 kmh W 23.0 mph37.0 kmh 29.67 in1004.7 mb 0.00 in0.0 mm 0.00 in/hr0.0 mm/hr 0.00 in0.0 mm
02:20 PM 13.6°F-10.2°C 0.4°F-17.6°C 55% 12.0 mph W19.3 kmh W 20.0 mph32.2 kmh 29.67 in1004.7 mb 0.00 in0.0 mm 0.00 in/hr0.0 mm/hr 0.00 in0.0 mm
02:25 PM 14.0°F-10.0°C 0.8°F-17.3°C 55% 9.0 mph WNW14.5 kmh WNW 23.0 mph37.0 kmh 29.67 in1004.7 mb 0.00 in0.0 mm 0.00 in/hr0.0 mm/hr 0.00 in0.0 mm
02:30 PM 13.8°F-10.1°C -5537.2°C 52% 7.0 mph W11.3 kmh W 27.0 mph43.5 kmh 29.69 in1005.4 mb 0.00 in0.0 mm 0.00 in/hr0.0 mm/hr 0.00 in0.0 mm
02:35 PM 13.1°F-10.5°C -5537.2°C 54% 9.0 mph W14.5 kmh W 17.0 mph27.4 kmh 29.69 in1005.4 mb 0.00 in0.0 mm 0.00 in/hr0.0 mm/hr 0.00 in0.0 mm
02:40 PM 12.9°F-10.6°C -5537.2°C 52% 6.0 mph W9.7 kmh W 18.0 mph29.0 kmh 29.69 in1005.4 mb 0.00 in0.0 mm 0.00 in/hr0.0 mm/hr 0.00 in0.0 mm
02:45 PM 12.6°F-10.8°C -5537.2°C 51% 13.0 mph WNW20.9 kmh WNW 21.0 mph33.8 kmh 29.71 in1006.1 mb 0.00 in0.0 mm 0.00 in/hr0.0 mm/hr 0.00 in0.0 mm
02:50 PM 12.4°F-10.9°C -5537.2°C 53% 2.0 mph W3.2 kmh W 18.0 mph29.0 kmh 29.71 in1006.1 mb 0.00 in0.0 mm 0.00 in/hr0.0 mm/hr 0.00 in0.0 mm
02:55 PM 12.4°F-10.9°C -5537.2°C 54% 5.0 mph WSW8.0 kmh WSW 16.0 mph25.7 kmh 29.71 in1006.1 mb 0.00 in0.0 mm 0.00 in/hr0.0 mm/hr 0.00 in0.0 mm
03:00 PM 12.4°F-10.9°C -5537.2°C 54% 16.0 mph WNW25.7 kmh WNW 16.0 mph25.7 kmh 29.72 in1006.4 mb 0.00 in0.0 mm 0.00 in/hr0.0 mm/hr 0.00 in0.0 mm
03:05 PM 12.6°F-10.8°C -5537.2°C 55% 12.0 mph NNW19.3 kmh NNW 18.0 mph29.0 kmh 29.72 in1006.4 mb 0.00 in0.0 mm 0.00 in/hr0.0 mm/hr 0.00 in0.0 mm
03:10 PM 12.9°F-10.6°C -5537.2°C 55% 8.0 mph NNW12.9 kmh NNW 16.0 mph25.7 kmh 29.72 in1006.4 mb 0.00 in0.0 mm 0.00 in/hr0.0 mm/hr 0.00 in0.0 mm
03:15 PM 13.3°F-10.4°C -5537.2°C 53% 9.0 mph WNW14.5 kmh WNW 20.0 mph32.2 kmh 29.72 in1006.4 mb 0.00 in0.0 mm 0.00 in/hr0.0 mm/hr 0.00 in0.0 mm
03:20 PM 14.0°F-10.0°C -5537.2°C 48% 5.0 mph NW8.0 kmh NW 28.0 mph45.1 kmh 29.72 in1006.4 mb 0.00 in0.0 mm 0.00 in/hr0.0 mm/hr 0.00 in0.0 mm
03:25 PM 14.0°F-10.0°C -3.0°F-19.4°C 46% 18.0 mph WNW29.0 kmh WNW 23.0 mph37.0 kmh 29.72 in1006.4 mb 0.00 in0.0 mm 0.00 in/hr0.0 mm/hr 0.00 in0.0 mm
03:30 PM 13.8°F-10.1°C -5537.2°C 50% 11.0 mph NW17.7 kmh NW 23.0 mph37.0 kmh 29.73 in1006.8 mb 0.00 in0.0 mm 0.00 in/hr0.0 mm/hr 0.00 in0.0 mm
03:35 PM 14.1°F-9.9°C -2.0°F-18.9°C 48% 7.0 mph NW11.3 kmh NW 13.0 mph20.9 kmh 29.73 in1006.8 mb 0.00 in0.0 mm 0.00 in/hr0.0 mm/hr 0.00 in0.0 mm
03:40 PM 14.4°F-9.8°C -6.0°F-21.1°C 39% 3.0 mph WNW4.8 kmh WNW 18.0 mph29.0 kmh 29.73 in1006.8 mb 0.00 in0.0 mm 0.00 in/hr0.0 mm/hr 0.00 in0.0 mm
03:45 PM 15.1°F-9.4°C -5537.2°C 40% 7.0 mph WSW11.3 kmh WSW 17.0 mph27.4 kmh 29.74 in1007.1 mb 0.00 in0.0 mm 0.00 in/hr0.0 mm/hr 0.00 in0.0 mm
03:50 PM 14.8°F-9.6°C -5537.2°C 38% 7.0 mph NW11.3 kmh NW 24.0 mph38.6 kmh 29.74 in1007.1 mb 0.00 in0.0 mm 0.00 in/hr0.0 mm/hr 0.00 in0.0 mm
03:55 PM 14.4°F-9.8°C -5.0°F-20.6°C 41% 10.0 mph NW16.1 kmh NW 28.0 mph45.1 kmh 29.74 in1007.1 mb 0.00 in0.0 mm 0.00 in/hr0.0 mm/hr 0.00 in0.0 mm
04:00 PM 14.1°F-9.9°C -5537.2°C 39% 6.0 mph NW9.7 kmh NW 19.0 mph30.6 kmh 29.76 in1007.8 mb 0.00 in0.0 mm 0.00 in/hr0.0 mm/hr 0.00 in0.0 mm
04:05 PM 13.3°F-10.4°C -6.0°F-21.1°C 41% 12.0 mph NW19.3 kmh NW 20.0 mph32.2 kmh 29.76 in1007.8 mb 0.00 in0.0 mm 0.00 in/hr0.0 mm/hr 0.00 in0.0 mm
04:10 PM 12.9°F-10.6°C -5537.2°C 41% 3.0 mph NW4.8 kmh NW 19.0 mph30.6 kmh 29.76 in1007.8 mb 0.00 in0.0 mm 0.00 in/hr0.0 mm/hr 0.00 in0.0 mm
04:15 PM 12.9°F-10.6°C -5537.2°C 44% 7.0 mph WNW11.3 kmh WNW 20.0 mph32.2 kmh 29.77 in1008.1 mb 0.00 in0.0 mm 0.00 in/hr0.0 mm/hr 0.00 in0.0 mm
04:20 PM 12.8°F-10.7°C -5537.2°C 43% 12.0 mph WNW19.3 kmh WNW 22.0 mph35.4 kmh 29.77 in1008.1 mb 0.00 in0.0 mm 0.00 in/hr0.0 mm/hr 0.00 in0.0 mm
04:25 PM 12.6°F-10.8°C -5537.2°C 44% 24.0 mph NW38.6 kmh NW 26.0 mph41.8 kmh 29.77 in1008.1 mb 0.00 in0.0 mm 0.00 in/hr0.0 mm/hr 0.00 in0.0 mm
04:30 PM 12.4°F-10.9°C -5537.2°C 49% 14.0 mph NW22.5 kmh NW 25.0 mph40.2 kmh 29.79 in1008.8 mb 0.00 in0.0 mm 0.00 in/hr0.0 mm/hr 0.00 in0.0 mm
04:35 PM 12.8°F-10.7°C -5537.2°C 49% 12.0 mph NW19.3 kmh NW 24.0 mph38.6 kmh 29.79 in1008.8 mb 0.00 in0.0 mm 0.00 in/hr0.0 mm/hr 0.00 in0.0 mm
04:40 PM 12.1°F-11.1°C -5537.2°C 40% 7.0 mph WSW11.3 kmh WSW 22.0 mph35.4 kmh 29.79 in1008.8 mb 0.00 in0.0 mm 0.00 in/hr0.0 mm/hr 0.00 in0.0 mm
04:45 PM 11.7°F-11.3°C -5537.2°C 37% 6.0 mph W9.7 kmh W 23.0 mph37.0 kmh 29.80 in1009.1 mb 0.00 in0.0 mm 0.00 in/hr0.0 mm/hr 0.00 in0.0 mm
04:50 PM 11.6°F-11.3°C -5537.2°C 39% 11.0 mph NW17.7 kmh NW 21.0 mph33.8 kmh 29.80 in1009.1 mb 0.00 in0.0 mm 0.00 in/hr0.0 mm/hr 0.00 in0.0 mm
04:55 PM 11.7°F-11.3°C -5537.2°C 39% 10.0 mph NW16.1 kmh NW 20.0 mph32.2 kmh 29.80 in1009.1 mb 0.00 in0.0 mm 0.00 in/hr0.0 mm/hr 0.00 in0.0 mm
05:00 PM 11.6°F-11.3°C -8.0°F-22.2°C 40% 9.0 mph NW14.5 kmh NW 22.0 mph35.4 kmh 29.81 in1009.5 mb 0.00 in0.0 mm 0.00 in/hr0.0 mm/hr 0.00 in0.0 mm
05:05 PM 11.6°F-11.3°C -8.0°F-22.2°C 40% 9.0 mph WNW14.5 kmh WNW 20.0 mph32.2 kmh 29.81 in1009.5 mb 0.00 in0.0 mm 0.00 in/hr0.0 mm/hr 0.00 in0.0 mm
05:10 PM 11.6°F-11.3°C -5537.2°C 45% 2.0 mph WNW3.2 kmh WNW 16.0 mph25.7 kmh 29.81 in1009.5 mb 0.00 in0.0 mm 0.00 in/hr0.0 mm/hr 0.00 in0.0 mm
05:15 PM 11.4°F-11.4°C -5537.2°C 48% 3.0 mph NW4.8 kmh NW 20.0 mph32.2 kmh 29.82 in1009.8 mb 0.00 in0.0 mm 0.00 in/hr0.0 mm/hr 0.00 in0.0 mm
05:20 PM 11.4°F-11.4°C -5537.2°C 49% 4.0 mph NW6.4 kmh NW 30.0 mph48.3 kmh 29.82 in1009.8 mb 0.00 in0.0 mm 0.00 in/hr0.0 mm/hr 0.00 in0.0 mm
05:25 PM 11.4°F-11.4°C -5537.2°C 50% 8.0 mph W12.9 kmh W 21.0 mph33.8 kmh 29.82 in1009.8 mb 0.00 in0.0 mm 0.00 in/hr0.0 mm/hr 0.00 in0.0 mm
05:30 PM 11.4°F-11.4°C -5537.2°C 49% 7.0 mph W11.3 kmh W 22.0 mph35.4 kmh 29.84 in1010.5 mb 0.00 in0.0 mm 0.00 in/hr0.0 mm/hr 0.00 in0.0 mm
05:35 PM 11.4°F-11.4°C -5537.2°C 50% 22.0 mph NW35.4 kmh NW 22.0 mph35.4 kmh 29.84 in1010.5 mb 0.00 in0.0 mm 0.00 in/hr0.0 mm/hr 0.00 in0.0 mm
05:40 PM 11.4°F-11.4°C -5537.2°C 46% 9.0 mph SW14.5 kmh SW 22.0 mph35.4 kmh 29.84 in1010.5 mb 0.00 in0.0 mm 0.00 in/hr0.0 mm/hr 0.00 in0.0 mm
05:45 PM 11.2°F-11.6°C -5537.2°C 47% 4.0 mph WNW6.4 kmh WNW 25.0 mph40.2 kmh 29.86 in1011.2 mb 0.00 in0.0 mm 0.00 in/hr0.0 mm/hr 0.00 in0.0 mm
05:50 PM 11.1°F-11.6°C -5537.2°C 48% 8.0 mph WNW12.9 kmh WNW 19.0 mph30.6 kmh 29.86 in1011.2 mb 0.00 in0.0 mm 0.00 in/hr0.0 mm/hr 0.00 in0.0 mm
05:55 PM 11.1°F-11.6°C -5537.2°C 47% 13.0 mph NW20.9 kmh NW 28.0 mph45.1 kmh 29.86 in1011.2 mb 0.00 in0.0 mm 0.00 in/hr0.0 mm/hr 0.00 in0.0 mm
06:00 PM 10.9°F-11.7°C -5537.2°C 48% 6.0 mph W9.7 kmh W 23.0 mph37.0 kmh 29.86 in1011.2 mb 0.00 in0.0 mm 0.00 in/hr0.0 mm/hr 0.00 in0.0 mm
06:05 PM 11.1°F-11.6°C -5537.2°C 48% 9.0 mph NW14.5 kmh NW 22.0 mph35.4 kmh 29.86 in1011.2 mb 0.00 in0.0 mm 0.00 in/hr0.0 mm/hr 0.00 in0.0 mm
06:10 PM 11.1°F-11.6°C -5537.2°C 47% 8.0 mph NW12.9 kmh NW 23.0 mph37.0 kmh 29.86 in1011.2 mb 0.00 in0.0 mm 0.00 in/hr0.0 mm/hr 0.00 in0.0 mm
06:15 PM 11.1°F-11.6°C -5537.2°C 47% 14.0 mph NNW22.5 kmh NNW 16.0 mph25.7 kmh 29.88 in1011.9 mb 0.00 in0.0 mm 0.00 in/hr0.0 mm/hr 0.00 in0.0 mm
06:20 PM 11.1°F-11.6°C -5537.2°C 45% 12.0 mph NW19.3 kmh NW 15.0 mph24.1 kmh 29.88 in1011.9 mb 0.00 in0.0 mm 0.00 in/hr0.0 mm/hr 0.00 in0.0 mm
06:25 PM 10.9°F-11.7°C -5537.2°C 45% 13.0 mph NW20.9 kmh NW 21.0 mph33.8 kmh 29.88 in1011.9 mb 0.00 in0.0 mm 0.00 in/hr0.0 mm/hr 0.00 in0.0 mm
06:30 PM 10.7°F-11.8°C -5537.2°C 48% 5.0 mph W8.0 kmh W 18.0 mph29.0 kmh 29.90 in1012.5 mb 0.00 in0.0 mm 0.00 in/hr0.0 mm/hr 0.00 in0.0 mm
06:35 PM 10.4°F-12.0°C -5537.2°C 55% 9.0 mph WNW14.5 kmh WNW 16.0 mph25.7 kmh 29.90 in1012.5 mb 0.00 in0.0 mm 0.00 in/hr0.0 mm/hr 0.00 in0.0 mm
06:40 PM 9.5°F-12.5°C 0.7°F-17.4°C 67% 6.0 mph WNW9.7 kmh WNW 15.0 mph24.1 kmh 29.90 in1012.5 mb 0.00 in0.0 mm 0.00 in/hr0.0 mm/hr 0.00 in0.0 mm
06:45 PM 9.0°F-12.8°C 1.2°F-17.1°C 70% 4.0 mph NW6.4 kmh NW 10.0 mph16.1 kmh 29.92 in1013.2 mb 0.00 in0.0 mm 0.00 in/hr0.0 mm/hr 0.00 in0.0 mm
06:50 PM 8.8°F-12.9°C 1.9°F-16.7°C 73% 6.0 mph N9.7 kmh N 9.0 mph14.5 kmh 29.92 in1013.2 mb 0.00 in0.0 mm 0.00 in/hr0.0 mm/hr 0.00 in0.0 mm
06:55 PM 8.6°F-13.0°C 2.0°F-16.7°C 74% 2.0 mph NW3.2 kmh NW 8.0 mph12.9 kmh 29.92 in1013.2 mb 0.00 in0.0 mm 0.00 in/hr0.0 mm/hr 0.00 in0.0 mm
07:00 PM 8.6°F-13.0°C 2.3°F-16.5°C 75% 3.0 mph NW4.8 kmh NW 9.0 mph14.5 kmh 29.93 in1013.5 mb 0.00 in0.0 mm 0.00 in/hr0.0 mm/hr 0.00 in0.0 mm
07:05 PM 8.4°F-13.1°C 2.1°F-16.6°C 75% 3.0 mph NW4.8 kmh NW 7.0 mph11.3 kmh 29.93 in1013.5 mb 0.00 in0.0 mm 0.00 in/hr0.0 mm/hr 0.00 in0.0 mm
07:10 PM 8.4°F-13.1°C 2.1°F-16.6°C 75% 2.0 mph NW3.2 kmh NW 7.0 mph11.3 kmh 29.93 in1013.5 mb 0.00 in0.0 mm 0.00 in/hr0.0 mm/hr 0.00 in0.0 mm
07:15 PM 8.4°F-13.1°C 2.1°F-16.6°C 75% 4.0 mph NW6.4 kmh NW 8.0 mph12.9 kmh 29.95 in1014.2 mb 0.00 in0.0 mm 0.00 in/hr0.0 mm/hr 0.00 in0.0 mm
07:20 PM 8.4°F-13.1°C 2.1°F-16.6°C 75% 1.0 mph NW1.6 kmh NW 5.0 mph8.0 kmh 29.95 in1014.2 mb 0.00 in0.0 mm 0.00 in/hr0.0 mm/hr 0.00 in0.0 mm
07:25 PM 8.4°F-13.1°C 2.7°F-16.3°C 77% Calm Calm 3.0 mph4.8 kmh 29.95 in1014.2 mb 0.00 in0.0 mm 0.00 in/hr0.0 mm/hr 0.00 in0.0 mm
07:30 PM 8.3°F-13.2°C 2.3°F-16.5°C 76% 4.0 mph N6.4 kmh N 7.0 mph11.3 kmh 29.96 in1014.6 mb 0.00 in0.0 mm 0.00 in/hr0.0 mm/hr 0.00 in0.0 mm
07:35 PM 8.3°F-13.2°C 1.7°F-16.8°C 74% 4.0 mph NNE6.4 kmh NNE 10.0 mph16.1 kmh 29.96 in1014.6 mb 0.00 in0.0 mm 0.00 in/hr0.0 mm/hr 0.00 in0.0 mm
07:40 PM 8.4°F-13.1°C 0.6°F-17.4°C 70% 4.0 mph WNW6.4 kmh WNW 19.0 mph30.6 kmh 29.96 in1014.6 mb 0.00 in0.0 mm 0.00 in/hr0.0 mm/hr 0.00 in0.0 mm
07:45 PM 8.6°F-13.0°C 0.2°F-17.7°C 68% 9.0 mph WNW14.5 kmh WNW 16.0 mph25.7 kmh 29.96 in1014.6 mb 0.00 in0.0 mm 0.00 in/hr0.0 mm/hr 0.00 in0.0 mm
07:50 PM 8.6°F-13.0°C -5537.2°C 66% 7.0 mph NW11.3 kmh NW 12.0 mph19.3 kmh 29.96 in1014.6 mb 0.00 in0.0 mm 0.00 in/hr0.0 mm/hr 0.00 in0.0 mm
07:55 PM 8.6°F-13.0°C -5537.2°C 65% 8.0 mph WNW12.9 kmh WNW 11.0 mph17.7 kmh 29.96 in1014.6 mb 0.00 in0.0 mm 0.00 in/hr0.0 mm/hr 0.00 in0.0 mm
08:00 PM 8.6°F-13.0°C -5537.2°C 64% 7.0 mph NW11.3 kmh NW 10.0 mph16.1 kmh 29.97 in1014.9 mb 0.00 in0.0 mm 0.00 in/hr0.0 mm/hr 0.00 in0.0 mm
08:05 PM 8.6°F-13.0°C -5537.2°C 63% 11.0 mph NW17.7 kmh NW 11.0 mph17.7 kmh 29.97 in1014.9 mb 0.00 in0.0 mm 0.00 in/hr0.0 mm/hr 0.00 in0.0 mm
08:10 PM 8.8°F-12.9°C -5537.2°C 62% 4.0 mph NW6.4 kmh NW 12.0 mph19.3 kmh 29.97 in1014.9 mb 0.00 in0.0 mm 0.00 in/hr0.0 mm/hr 0.00 in0.0 mm
08:15 PM 8.8°F-12.9°C -5537.2°C 62% 10.0 mph NNE16.1 kmh NNE 18.0 mph29.0 kmh 29.98 in1015.2 mb 0.00 in0.0 mm 0.00 in/hr0.0 mm/hr 0.00 in0.0 mm
08:20 PM 8.6°F-13.0°C -5537.2°C 63% 10.0 mph NW16.1 kmh NW 13.0 mph20.9 kmh 29.98 in1015.2 mb 0.00 in0.0 mm 0.00 in/hr0.0 mm/hr 0.00 in0.0 mm
08:25 PM 8.6°F-13.0°C -5537.2°C 65% 5.0 mph NW8.0 kmh NW 13.0 mph20.9 kmh 29.98 in1015.2 mb 0.00 in0.0 mm 0.00 in/hr0.0 mm/hr 0.00 in0.0 mm
08:30 PM 8.4°F-13.1°C -5537.2°C 66% 3.0 mph W4.8 kmh W 11.0 mph17.7 kmh 29.98 in1015.2 mb 0.00 in0.0 mm 0.00 in/hr0.0 mm/hr 0.00 in0.0 mm
08:35 PM 8.4°F-13.1°C -1.0°F-18.3°C 65% 7.0 mph NW11.3 kmh NW 13.0 mph20.9 kmh 29.98 in1015.2 mb 0.00 in0.0 mm 0.00 in/hr0.0 mm/hr 0.00 in0.0 mm
08:40 PM 8.4°F-13.1°C -2.0°F-18.9°C 62% 4.0 mph WSW6.4 kmh WSW 15.0 mph24.1 kmh 29.98 in1015.2 mb 0.00 in0.0 mm 0.00 in/hr0.0 mm/hr 0.00 in0.0 mm
08:45 PM 8.3°F-13.2°C -2.0°F-18.9°C 62% 5.0 mph W8.0 kmh W 10.0 mph16.1 kmh 29.98 in1015.2 mb 0.00 in0.0 mm 0.00 in/hr0.0 mm/hr 0.00 in0.0 mm
08:50 PM 8.3°F-13.2°C -5537.2°C 61% 10.0 mph WNW16.1 kmh WNW 15.0 mph24.1 kmh 29.98 in1015.2 mb 0.00 in0.0 mm 0.00 in/hr0.0 mm/hr 0.00 in0.0 mm
08:55 PM 8.3°F-13.2°C -5537.2°C 60% 3.0 mph NW4.8 kmh NW 14.0 mph22.5 kmh 29.98 in1015.2 mb 0.00 in0.0 mm 0.00 in/hr0.0 mm/hr 0.00 in0.0 mm
09:00 PM 8.1°F-13.3°C -5537.2°C 61% 6.0 mph NW9.7 kmh NW 19.0 mph30.6 kmh 29.99 in1015.6 mb 0.00 in0.0 mm 0.00 in/hr0.0 mm/hr 0.00 in0.0 mm
09:05 PM 8.1°F-13.3°C -5537.2°C 61% 9.0 mph NW14.5 kmh NW 14.0 mph22.5 kmh 29.99 in1015.6 mb 0.00 in0.0 mm 0.00 in/hr0.0 mm/hr 0.00 in0.0 mm
09:10 PM 8.3°F-13.2°C -5537.2°C 60% 9.0 mph W14.5 kmh W 21.0 mph33.8 kmh 29.99 in1015.6 mb 0.00 in0.0 mm 0.00 in/hr0.0 mm/hr 0.00 in0.0 mm
09:15 PM 7.9°F-13.4°C -5537.2°C 60% 6.0 mph WSW9.7 kmh WSW 19.0 mph30.6 kmh 29.99 in1015.6 mb 0.00 in0.0 mm 0.00 in/hr0.0 mm/hr 0.00 in0.0 mm
09:20 PM 8.1°F-13.3°C -5537.2°C 59% 10.0 mph NW16.1 kmh NW 21.0 mph33.8 kmh 29.99 in1015.6 mb 0.00 in0.0 mm 0.00 in/hr0.0 mm/hr 0.00 in0.0 mm
09:25 PM 7.9°F-13.4°C -5537.2°C 60% 7.0 mph WNW11.3 kmh WNW 16.0 mph25.7 kmh 29.99 in1015.6 mb 0.00 in0.0 mm 0.00 in/hr0.0 mm/hr 0.00 in0.0 mm
09:30 PM 7.9°F-13.4°C -5537.2°C 60% 10.0 mph NW16.1 kmh NW 22.0 mph35.4 kmh 30.00 in1015.9 mb 0.00 in0.0 mm 0.00 in/hr0.0 mm/hr 0.00 in0.0 mm
09:35 PM 7.9°F-13.4°C -5537.2°C 61% 9.0 mph WNW14.5 kmh WNW 22.0 mph35.4 kmh 30.00 in1015.9 mb 0.00 in0.0 mm 0.00 in/hr0.0 mm/hr 0.00 in0.0 mm
09:40 PM 7.9°F-13.4°C -5537.2°C 60% 8.0 mph W12.9 kmh W 19.0 mph30.6 kmh 30.00 in1015.9 mb 0.00 in0.0 mm 0.00 in/hr0.0 mm/hr 0.00 in0.0 mm
09:45 PM 7.9°F-13.4°C -5537.2°C 62% 11.0 mph NW17.7 kmh NW 18.0 mph29.0 kmh 30.00 in1015.9 mb 0.00 in0.0 mm 0.00 in/hr0.0 mm/hr 0.00 in0.0 mm
09:50 PM 7.9°F-13.4°C -5537.2°C 64% 8.0 mph WNW12.9 kmh WNW 25.0 mph40.2 kmh 30.00 in1015.9 mb 0.00 in0.0 mm 0.00 in/hr0.0 mm/hr 0.00 in0.0 mm
09:55 PM 7.7°F-13.5°C -5537.2°C 66% 9.0 mph NW14.5 kmh NW 18.0 mph29.0 kmh 30.00 in1015.9 mb 0.00 in0.0 mm 0.00 in/hr0.0 mm/hr 0.00 in0.0 mm
10:00 PM 7.9°F-13.4°C -5537.2°C 66% 9.0 mph W14.5 kmh W 23.0 mph37.0 kmh 30.01 in1016.3 mb 0.00 in0.0 mm 0.00 in/hr0.0 mm/hr 0.00 in0.0 mm
10:05 PM 7.9°F-13.4°C -5537.2°C 66% 14.0 mph WNW22.5 kmh WNW 20.0 mph32.2 kmh 30.01 in1016.3 mb 0.00 in0.0 mm 0.00 in/hr0.0 mm/hr 0.00 in0.0 mm
10:10 PM 8.1°F-13.3°C -5537.2°C 64% 3.0 mph WSW4.8 kmh WSW 25.0 mph40.2 kmh 30.01 in1016.3 mb 0.00 in0.0 mm 0.00 in/hr0.0 mm/hr 0.00 in0.0 mm
10:15 PM 8.1°F-13.3°C -5537.2°C 61% 9.0 mph WNW14.5 kmh WNW 23.0 mph37.0 kmh 30.02 in1016.6 mb 0.00 in0.0 mm 0.00 in/hr0.0 mm/hr 0.00 in0.0 mm
10:20 PM 8.3°F-13.2°C -5537.2°C 60% 8.0 mph NW12.9 kmh NW 20.0 mph32.2 kmh 30.02 in1016.6 mb 0.00 in0.0 mm 0.00 in/hr0.0 mm/hr 0.00 in0.0 mm
10:25 PM 8.4°F-13.1°C -5537.2°C 58% 10.0 mph NW16.1 kmh NW 20.0 mph32.2 kmh 30.02 in1016.6 mb 0.00 in0.0 mm 0.00 in/hr0.0 mm/hr 0.00 in0.0 mm
10:30 PM 8.8°F-12.9°C -5537.2°C 57% 9.0 mph WNW14.5 kmh WNW 26.0 mph41.8 kmh 30.03 in1016.9 mb 0.00 in0.0 mm 0.00 in/hr0.0 mm/hr 0.00 in0.0 mm
10:35 PM 8.6°F-13.0°C -5537.2°C 56% 6.0 mph WNW9.7 kmh WNW 24.0 mph38.6 kmh 30.03 in1016.9 mb 0.00 in0.0 mm 0.00 in/hr0.0 mm/hr 0.00 in0.0 mm
10:40 PM 8.6°F-13.0°C -5537.2°C 57% 12.0 mph WNW19.3 kmh WNW 13.0 mph20.9 kmh 30.03 in1016.9 mb 0.00 in0.0 mm 0.00 in/hr0.0 mm/hr 0.00 in0.0 mm
10:45 PM 8.3°F-13.2°C -5537.2°C 58% 15.0 mph WSW24.1 kmh WSW 15.0 mph24.1 kmh 30.04 in1017.3 mb 0.00 in0.0 mm 0.00 in/hr0.0 mm/hr 0.00 in0.0 mm
10:50 PM 8.3°F-13.2°C -5537.2°C 60% 10.0 mph W16.1 kmh W 17.0 mph27.4 kmh 30.04 in1017.3 mb 0.00 in0.0 mm 0.00 in/hr0.0 mm/hr 0.00 in0.0 mm
10:55 PM 8.3°F-13.2°C -5537.2°C 59% 13.0 mph NW20.9 kmh NW 22.0 mph35.4 kmh 30.04 in1017.3 mb 0.00 in0.0 mm 0.00 in/hr0.0 mm/hr 0.00 in0.0 mm
11:00 PM 8.4°F-13.1°C -5537.2°C 58% 8.0 mph NW12.9 kmh NW 21.0 mph33.8 kmh 30.05 in1017.6 mb 0.00 in0.0 mm 0.00 in/hr0.0 mm/hr 0.00 in0.0 mm
11:05 PM 8.3°F-13.2°C -5537.2°C 60% 10.0 mph NW16.1 kmh NW 13.0 mph20.9 kmh 30.05 in1017.6 mb 0.00 in0.0 mm 0.00 in/hr0.0 mm/hr 0.00 in0.0 mm
11:10 PM 8.1°F-13.3°C -5537.2°C 58% 10.0 mph SW16.1 kmh SW 27.0 mph43.5 kmh 30.05 in1017.6 mb 0.00 in0.0 mm 0.00 in/hr0.0 mm/hr 0.00 in0.0 mm
11:15 PM 8.3°F-13.2°C -5537.2°C 57% 14.0 mph WNW22.5 kmh WNW 21.0 mph33.8 kmh 30.05 in1017.6 mb 0.00 in0.0 mm 0.00 in/hr0.0 mm/hr 0.00 in0.0 mm
11:20 PM 8.4°F-13.1°C -5537.2°C 56% 8.0 mph W12.9 kmh W 19.0 mph30.6 kmh 30.05 in1017.6 mb 0.00 in0.0 mm 0.00 in/hr0.0 mm/hr 0.00 in0.0 mm
11:25 PM 8.3°F-13.2°C -5537.2°C 55% 10.0 mph WNW16.1 kmh WNW 23.0 mph37.0 kmh 30.05 in1017.6 mb 0.00 in0.0 mm 0.00 in/hr0.0 mm/hr 0.00 in0.0 mm
11:30 PM 8.1°F-13.3°C -4.0°F-20.0°C 57% 6.0 mph NW9.7 kmh NW 18.0 mph29.0 kmh 30.06 in1017.9 mb 0.00 in0.0 mm 0.00 in/hr0.0 mm/hr 0.00 in0.0 mm
11:35 PM 8.1°F-13.3°C -4.0°F-20.0°C 57% 18.0 mph WSW29.0 kmh WSW 27.0 mph43.5 kmh 30.06 in1017.9 mb 0.00 in0.0 mm 0.00 in/hr0.0 mm/hr 0.00 in0.0 mm
11:40 PM 8.3°F-13.2°C -5537.2°C 57% 19.0 mph NW30.6 kmh NW 27.0 mph43.5 kmh 30.06 in1017.9 mb 0.00 in0.0 mm 0.00 in/hr0.0 mm/hr 0.00 in0.0 mm
11:45 PM 8.3°F-13.2°C -5537.2°C 58% 6.0 mph NW9.7 kmh NW 26.0 mph41.8 kmh 30.06 in1017.9 mb 0.00 in0.0 mm 0.00 in/hr0.0 mm/hr 0.00 in0.0 mm
11:50 PM 8.3°F-13.2°C -5537.2°C 58% 16.0 mph NW25.7 kmh NW 25.0 mph40.2 kmh 30.06 in1017.9 mb 0.00 in0.0 mm 0.00 in/hr0.0 mm/hr 0.00 in0.0 mm
11:55 PM 8.3°F-13.2°C -5537.2°C 59% 11.0 mph NW17.7 kmh NW 22.0 mph35.4 kmh 30.06 in1017.9 mb 0.00 in0.0 mm 0.00 in/hr0.0 mm/hr 0.00 in0.0 mm